Time;durP1;ratioP1;P1;durP2;ratioP2;P2;SDS_P1;SDS_P2;PMS_P1;PMS_P2;Temp;Humidity;BMP_temperature;BMP_pressure;BME280_temperature;BME280_humidity;BME280_pressure;Samples;Min_cycle;Max_cycle;Signal;HPM_P1;HPM_P2
2021/12/24 04:03:05;;;;;;;108.40;49.13;;;8.30;97.90;;;;;;5070865;28;20422;-54
2021/12/24 04:05:30;;;;;;;98.78;44.97;;;8.30;97.90;;;;;;5070261;28;20033;-53
2021/12/24 04:07:56;;;;;;;96.80;42.92;;;8.30;97.80;;;;;;5069958;28;20357;-53
2021/12/24 04:10:55;;;;;;;133.40;58.85;;;8.30;97.70;;;;;;5069249;28;20028;-53
2021/12/24 04:13:15;;;;;;;121.90;58.60;;;8.40;97.70;;;;;;5068708;28;20032;-51
2021/12/24 04:15:40;;;;;;;118.55;52.67;;;8.40;97.60;;;;;;5069899;28;20092;-52
2021/12/24 04:18:14;;;;;;;107.07;47.53;;;8.40;97.50;;;;;;5069812;28;20515;-51
2021/12/24 04:26:08;;;;;;;89.72;41.55;;;8.40;97.40;;;;;;5069923;28;20027;-52
2021/12/24 04:28:34;;;;;;;86.03;44.42;;;8.30;97.40;;;;;;5069728;28;20354;-50
2021/12/24 04:31:01;;;;;;;111.35;51.78;;;8.40;97.40;;;;;;5069805;28;20071;-49
2021/12/24 04:33:37;;;;;;;100.30;49.42;;;8.40;97.40;;;;;;5069808;28;20492;-55
2021/12/24 04:52:29;;;;;;;99.60;49.40;;;8.40;97.30;;;;;;5069377;28;20051;-53
2021/12/24 05:03:31;;;;;;;106.85;51.75;;;8.50;97.20;;;;;;5069185;28;20037;-51
2021/12/24 05:11:10;;;;;;;84.63;43.88;;;8.60;97.00;;;;;;5069203;28;20047;-51
2021/12/24 05:13:37;;;;;;;93.50;43.80;;;8.60;97.00;;;;;;5060290;28;20064;-52
2021/12/24 05:16:13;;;;;;;76.88;43.17;;;8.60;96.80;;;;;;5055580;28;20338;-51
2021/12/24 05:21:42;;;;;;;84.45;40.60;;;8.70;96.60;;;;;;5055521;28;20086;-49
2021/12/24 05:24:24;;;;;;;76.68;39.75;;;8.70;96.60;;;;;;5055263;28;20021;-51
2021/12/24 05:26:53;;;;;;;77.82;40.17;;;8.60;96.70;;;;;;5055148;28;20027;-49
2021/12/24 05:29:19;;;;;;;80.78;38.03;;;8.60;96.60;;;;;;5053818;28;20060;-49
2021/12/24 05:31:45;;;;;;;79.45;39.75;;;8.60;96.60;;;;;;5055403;28;20045;-51
2021/12/24 05:34:11;;;;;;;74.05;36.65;;;8.70;96.70;;;;;;5055087;28;20389;-52
2021/12/24 05:36:37;;;;;;;76.65;38.20;;;8.70;96.50;;;;;;5055035;28;20033;-50
2021/12/24 05:39:04;;;;;;;64.38;32.13;;;8.60;96.50;;;;;;5055255;28;20059;-53
2021/12/24 05:41:30;;;;;;;72.35;36.67;;;8.70;96.40;;;;;;5054895;28;20086;-53
2021/12/24 05:43:58;;;;;;;84.38;37.50;;;8.70;96.40;;;;;;5054885;28;20134;-50
2021/12/24 05:46:24;;;;;;;76.55;35.85;;;8.70;96.40;;;;;;5053496;28;20494;-49
2021/12/24 05:48:49;;;;;;;74.60;32.80;;;8.70;96.30;;;;;;5054465;28;20017;-50
2021/12/24 05:51:15;;;;;;;70.55;36.67;;;8.70;96.20;;;;;;5054876;28;20035;-53
2021/12/24 05:53:41;;;;;;;67.88;32.08;;;8.80;96.10;;;;;;5054854;28;20047;-49
2021/12/24 05:56:07;;;;;;;64.20;33.38;;;8.80;96.00;;;;;;5054889;28;20411;-50
2021/12/24 05:58:32;;;;;;;47.05;25.08;;;8.80;96.00;;;;;;5054815;28;20485;-52
2021/12/24 06:00:58;;;;;;;71.97;35.55;;;8.80;95.90;;;;;;5054422;28;20049;-52
2021/12/24 06:03:23;;;;;;;57.55;31.40;;;8.80;95.90;;;;;;5054616;28;20095;-50
2021/12/24 06:05:49;;;;;;;62.85;34.03;;;8.80;95.90;;;;;;5054705;28;20021;-50
2021/12/24 06:08:15;;;;;;;74.95;34.80;;;8.80;95.80;;;;;;5054965;28;20484;-50
2021/12/24 06:10:42;;;;;;;49.17;25.63;;;8.80;95.90;;;;;;5054582;28;20021;-52
2021/12/24 06:13:08;;;;;;;59.92;29.63;;;8.80;95.60;;;;;;5054916;28;20044;-50
2021/12/24 06:15:42;;;;;;;50.17;28.42;;;8.80;95.40;;;;;;5053870;28;20021;-52
2021/12/24 06:18:26;;;;;;;57.15;30.63;;;8.90;95.10;;;;;;5055254;28;20337;-51
2021/12/24 06:20:53;;;;;;;61.72;31.13;;;9.00;95.00;;;;;;5055798;28;20025;-53
2021/12/24 06:23:21;;;;;;;60.13;28.80;;;8.90;94.90;;;;;;5055018;28;20032;-49
2021/12/24 06:25:51;;;;;;;65.32;32.97;;;8.90;95.00;;;;;;5054851;28;20154;-49
2021/12/24 06:28:16;;;;;;;68.87;31.17;;;8.90;95.00;;;;;;5054790;28;20074;-49
2021/12/24 06:30:45;;;;;;;59.10;30.77;;;8.90;94.90;;;;;;5053481;28;20101;-49
2021/12/24 06:33:11;;;;;;;51.88;26.63;;;8.80;95.10;;;;;;5054548;28;20021;-50
2021/12/24 06:35:37;;;;;;;63.05;30.90;;;8.90;95.00;;;;;;5054532;28;20048;-50
2021/12/24 06:38:03;;;;;;;64.65;33.50;;;8.90;95.10;;;;;;5054786;28;20386;-49
2021/12/24 06:40:29;;;;;;;66.38;31.83;;;8.90;95.10;;;;;;5055165;28;20017;-50
2021/12/24 06:42:55;;;;;;;70.40;32.90;;;8.90;95.20;;;;;;5055081;28;20465;-51
2021/12/24 06:45:24;;;;;;;64.82;33.95;;;8.90;95.10;;;;;;5054728;28;20132;-48
2021/12/24 06:47:52;;;;;;;63.35;33.20;;;8.90;95.10;;;;;;5055080;28;20358;-53
2021/12/24 06:50:17;;;;;;;59.47;28.77;;;8.90;95.10;;;;;;5053663;28;20017;-52
2021/12/24 06:52:43;;;;;;;72.65;30.40;;;8.90;94.90;;;;;;5053950;28;20029;-50
2021/12/24 06:55:10;;;;;;;62.50;30.38;;;8.80;95.00;;;;;;5054081;28;20025;-54
2021/12/24 06:57:37;;;;;;;74.50;32.92;;;8.80;95.10;;;;;;5054642;28;20017;-51
2021/12/24 07:00:05;;;;;;;72.93;33.10;;;8.80;95.10;;;;;;5054198;28;20112;-50
2021/12/24 07:02:30;;;;;;;65.40;31.83;;;8.80;95.10;;;;;;5053311;28;20041;-49
2021/12/24 07:04:56;;;;;;;60.55;27.67;;;8.90;95.00;;;;;;5054234;28;20384;-52
2021/12/24 07:07:22;;;;;;;67.57;33.33;;;8.80;95.00;;;;;;5054768;28;20036;-49
2021/12/24 07:09:47;;;;;;;61.90;33.42;;;8.90;95.10;;;;;;5053598;28;20148;-51
2021/12/24 07:12:14;;;;;;;53.35;28.13;;;8.90;95.00;;;;;;5053333;28;20032;-50
2021/12/24 07:14:42;;;;;;;55.03;25.67;;;8.90;94.80;;;;;;5052270;28;20021;-52
2021/12/24 07:17:08;;;;;;;60.83;31.85;;;8.90;94.80;;;;;;5053436;28;20025;-49
2021/12/24 07:19:34;;;;;;;67.97;31.58;;;8.90;94.90;;;;;;5053754;28;20033;-50
2021/12/24 07:22:00;;;;;;;52.70;25.95;;;8.90;94.90;;;;;;5053140;28;20139;-49
2021/12/24 07:24:26;;;;;;;71.40;29.02;;;8.90;94.70;;;;;;5053503;28;20021;-49
2021/12/24 07:26:52;;;;;;;56.10;29.20;;;8.90;94.70;;;;;;5054566;28;20075;-50
2021/12/24 07:29:18;;;;;;;48.63;27.08;;;8.90;94.80;;;;;;5053199;28;20033;-50
2021/12/24 07:31:44;;;;;;;65.15;32.35;;;8.90;94.60;;;;;;5053597;28;20036;-49
2021/12/24 07:34:09;;;;;;;67.95;29.15;;;8.90;94.60;;;;;;5053726;28;20481;-51
2021/12/24 07:36:35;;;;;;;59.13;32.80;;;9.00;94.30;;;;;;5053056;28;20067;-50
2021/12/24 07:39:01;;;;;;;64.03;32.00;;;9.00;94.30;;;;;;5053578;28;20090;-50
2021/12/24 07:41:27;;;;;;;73.32;32.33;;;9.00;94.20;;;;;;5052609;28;20382;-51
2021/12/24 07:43:53;;;;;;;71.35;30.83;;;9.00;94.30;;;;;;5053363;28;20377;-49
2021/12/24 07:46:22;;;;;;;61.78;25.92;;;9.00;94.10;;;;;;5052450;28;20029;-49
2021/12/24 07:48:49;;;;;;;71.88;27.83;;;8.90;94.00;;;;;;5053867;28;20025;-50
2021/12/24 07:54:01;;;;;;;55.45;25.60;;;9.00;93.60;;;;;;5053212;28;20036;-51
2021/12/24 07:56:28;;;;;;;56.50;27.20;;;9.10;93.60;;;;;;5052409;28;20059;-47
2021/12/24 07:58:54;;;;;;;51.90;26.02;;;9.00;93.70;;;;;;5052879;28;20095;-49
2021/12/24 08:01:26;;;;;;;46.38;23.85;;;9.00;93.60;;;;;;5053178;28;20037;-49
2021/12/24 08:03:56;;;;;;;47.05;25.17;;;8.90;93.70;;;;;;5052775;28;20096;-52
2021/12/24 08:06:25;;;;;;;46.08;21.70;;;8.90;93.60;;;;;;5052122;28;20066;-50
2021/12/24 08:08:50;;;;;;;44.75;22.83;;;8.90;93.40;;;;;;5052557;28;20448;-47
2021/12/24 08:11:16;;;;;;;42.97;20.58;;;8.90;93.40;;;;;;5052964;28;20025;-50
2021/12/24 08:13:42;;;;;;;43.80;19.88;;;8.90;93.10;;;;;;5053201;28;20021;-50
2021/12/24 08:16:09;;;;;;;37.42;18.92;;;9.00;92.90;;;;;;5052286;28;20025;-52
2021/12/24 08:18:36;;;;;;;39.17;19.15;;;9.00;92.90;;;;;;5052554;28;20022;-52
2021/12/24 08:21:03;;;;;;;40.50;17.92;;;9.00;92.70;;;;;;5053056;28;20029;-53
2021/12/24 08:23:28;;;;;;;30.60;15.85;;;9.00;92.80;;;;;;5051293;28;20060;-49
2021/12/24 08:25:58;;;;;;;43.50;20.73;;;9.00;92.80;;;;;;5051600;28;20025;-50
2021/12/24 08:28:26;;;;;;;43.10;17.67;;;9.00;92.50;;;;;;5052033;28;20024;-49
2021/12/24 08:30:52;;;;;;;39.42;17.48;;;9.00;92.60;;;;;;5052430;28;20047;-49
2021/12/24 08:33:17;;;;;;;34.92;18.92;;;8.90;92.80;;;;;;5052560;28;20021;-48
2021/12/24 08:35:43;;;;;;;37.78;16.33;;;8.90;92.80;;;;;;5052145;28;20366;-47
2021/12/24 08:38:09;;;;;;;45.15;18.52;;;8.90;92.90;;;;;;5051625;28;20167;-49
2021/12/24 08:40:35;;;;;;;47.92;18.00;;;8.90;92.80;;;;;;5052084;28;20025;-51
2021/12/24 08:43:01;;;;;;;35.50;19.40;;;8.90;92.80;;;;;;5052008;28;20029;-50
2021/12/24 08:45:27;;;;;;;35.45;16.83;;;8.90;92.60;;;;;;5052099;28;20029;-49
2021/12/24 08:47:52;;;;;;;49.25;19.63;;;8.80;92.90;;;;;;5052744;28;20036;-50
2021/12/24 08:50:18;;;;;;;38.13;20.30;;;8.90;92.80;;;;;;5056663;28;20025;-52
2021/12/24 08:52:45;;;;;;;43.45;19.70;;;8.90;92.70;;;;;;5056214;28;20029;-53
2021/12/24 08:55:12;;;;;;;33.58;16.85;;;8.90;92.60;;;;;;5055930;28;20029;-51
2021/12/24 08:57:39;;;;;;;40.97;20.17;;;9.00;92.50;;;;;;5055850;28;20032;-48
2021/12/24 09:00:09;;;;;;;36.40;15.45;;;9.00;92.20;;;;;;5055904;28;20067;-48
2021/12/24 09:02:35;;;;;;;40.33;18.83;;;9.00;92.30;;;;;;5055323;28;20049;-49
2021/12/24 09:05:01;;;;;;;38.83;21.05;;;8.90;92.50;;;;;;5055159;28;20025;-51
2021/12/24 09:07:27;;;;;;;62.97;22.75;;;8.90;92.50;;;;;;5055608;28;20047;-51
2021/12/24 09:09:52;;;;;;;41.45;21.10;;;9.00;92.30;;;;;;5055962;28;20032;-49
2021/12/24 09:12:18;;;;;;;41.25;18.55;;;9.00;92.40;;;;;;5055897;28;20059;-57
2021/12/24 09:14:44;;;;;;;42.33;19.60;;;8.90;92.30;;;;;;5055588;28;20028;-52
2021/12/24 09:17:10;;;;;;;48.03;20.13;;;9.00;92.30;;;;;;5055803;28;20384;-51
2021/12/24 09:19:38;;;;;;;34.90;18.17;;;9.00;92.40;;;;;;5055128;28;20056;-49
2021/12/24 09:22:04;;;;;;;42.58;20.58;;;8.90;92.50;;;;;;5055487;28;20029;-49
2021/12/24 09:24:31;;;;;;;40.95;21.88;;;8.90;92.60;;;;;;5054816;28;20025;-52
2021/12/24 09:26:57;;;;;;;55.30;25.83;;;8.90;92.60;;;;;;5055192;28;20424;-50
2021/12/24 09:29:24;;;;;;;46.20;24.35;;;8.90;92.80;;;;;;5055335;28;20435;-48
2021/12/24 09:31:50;;;;;;;36.35;18.98;;;8.90;92.80;;;;;;5055112;28;20029;-50
2021/12/24 09:34:16;;;;;;;44.95;26.65;;;8.90;92.70;;;;;;5054975;28;20029;-48
2021/12/24 09:36:41;;;;;;;56.40;26.88;;;8.90;92.70;;;;;;5055206;28;20031;-52
2021/12/24 09:39:09;;;;;;;38.55;17.73;;;9.00;92.50;;;;;;5054722;28;20036;-50
2021/12/24 09:41:35;;;;;;;44.25;22.52;;;8.90;92.40;;;;;;5054623;28;20413;-50
2021/12/24 09:44:03;;;;;;;45.75;23.38;;;8.90;92.50;;;;;;5053544;28;20021;-49
2021/12/24 09:46:30;;;;;;;52.92;24.85;;;8.90;92.50;;;;;;5054605;28;20059;-52
2021/12/24 09:48:57;;;;;;;52.28;23.40;;;9.00;92.40;;;;;;5054825;28;20070;-52
2021/12/24 09:51:26;;;;;;;39.15;22.17;;;9.00;92.40;;;;;;5053317;28;20049;-50
2021/12/24 09:53:53;;;;;;;30.52;18.55;;;9.00;92.30;;;;;;5055320;28;20037;-51
2021/12/24 09:56:20;;;;;;;41.20;23.77;;;9.00;92.20;;;;;;5054338;28;20114;-54
2021/12/24 09:58:46;;;;;;;43.67;22.50;;;9.10;91.80;;;;;;5053754;28;20024;-50
2021/12/24 10:01:29;;;;;;;31.63;16.90;;;9.20;91.70;;;;;;5054078;28;20493;-49
2021/12/24 10:04:23;;;;;;;43.63;21.60;;;9.10;91.70;;;;;;5053851;28;20021;-51
2021/12/24 10:07:00;;;;;;;35.88;20.33;;;9.10;91.70;;;;;;5053605;28;20043;-50
2021/12/24 10:09:49;;;;;;;38.03;21.25;;;9.20;91.40;;;;;;5053574;28;20591;-49
2021/12/24 10:12:23;;;;;;;44.63;23.13;;;9.20;91.50;;;;;;5051791;28;20397;-50
2021/12/24 10:14:57;;;;;;;37.92;18.67;;;9.20;91.50;;;;;;5054150;28;20021;-50
2021/12/24 10:17:30;;;;;;;48.10;22.58;;;9.20;91.40;;;;;;5053268;28;20032;-53
2021/12/24 10:19:59;;;;;;;48.83;20.15;;;9.20;91.30;;;;;;5054703;28;20036;-53
2021/12/24 10:22:25;;;;;;;51.88;20.52;;;9.20;91.10;;;;;;5054200;28;20028;-51
2021/12/24 10:25:07;;;;;;;40.30;21.38;;;9.10;91.60;;;;;;5055113;28;20028;-52
2021/12/24 10:27:34;;;;;;;47.33;22.48;;;9.10;92.40;;;;;;5054902;28;20028;-49
2021/12/24 10:30:19;;;;;;;58.63;26.23;;;9.00;92.80;;;;;;5054156;28;20395;-51
2021/12/24 10:32:45;;;;;;;55.65;23.75;;;8.90;93.10;;;;;;5053976;28;20075;-51
2021/12/24 10:35:19;;;;;;;53.40;26.25;;;8.90;93.00;;;;;;5054670;28;20032;-52
2021/12/24 10:37:45;;;;;;;51.20;23.65;;;8.90;93.30;;;;;;5053054;28;20025;-54
2021/12/24 10:40:13;;;;;;;64.15;23.60;;;8.80;93.60;;;;;;5054216;28;20110;-49
2021/12/24 10:42:40;;;;;;;50.20;22.90;;;8.80;93.60;;;;;;5053831;28;20448;-48
2021/12/24 10:45:14;;;;;;;40.85;21.02;;;8.80;93.70;;;;;;5054280;28;20031;-50
2021/12/24 10:47:41;;;;;;;49.85;21.48;;;8.80;93.60;;;;;;5053497;28;20097;-49
2021/12/24 10:55:32;;;;;;;44.50;19.83;;;8.80;92.50;;;;;;5054383;28;20115;-39
2021/12/24 10:58:00;;;;;;;38.63;17.63;;;8.90;92.50;;;;;;5053112;28;20029;-41
2021/12/24 11:00:25;;;;;;;41.58;16.75;;;8.90;92.40;;;;;;5053541;28;20025;-39
2021/12/24 11:02:59;;;;;;;40.50;18.05;;;9.00;92.20;;;;;;5053642;28;20048;-39
2021/12/24 11:05:29;;;;;;;49.10;17.98;;;9.00;92.50;;;;;;5053477;28;20017;-39
2021/12/24 11:07:56;;;;;;;;;;;9.00;92.20;;;;;;5054661;28;20063;-39
2021/12/24 11:10:28;;;;;;;40.22;19.08;;;9.10;92.10;;;;;;5052892;28;19919;-39
2021/12/24 11:13:08;;;;;;;42.92;19.52;;;9.10;92.20;;;;;;5053451;28;20033;-39
2021/12/24 11:15:47;;;;;;;;;;;9.10;91.80;;;;;;5052894;28;20602;-39
2021/12/24 11:18:21;;;;;;;28.88;15.23;;;9.10;92.00;;;;;;5053472;28;19905;-38
2021/12/24 11:20:56;;;;;;;38.08;17.85;;;9.10;92.30;;;;;;5053420;28;20044;-38
2021/12/24 11:23:24;;;;;;;46.97;18.20;;;9.10;92.40;;;;;;5051850;28;20029;-40
2021/12/24 11:25:56;;;;;;;30.95;14.30;;;9.00;92.40;;;;;;5053348;28;20025;-39
2021/12/24 11:28:24;;;;;;;38.92;17.52;;;9.10;92.00;;;;;;5052570;28;20017;-41
2021/12/24 11:30:56;;;;;;;37.40;16.38;;;9.20;91.80;;;;;;5052652;28;20115;-39
2021/12/24 11:33:26;;;;;;;39.25;18.35;;;9.10;91.80;;;;;;5053456;28;20086;-39
2021/12/24 11:35:53;;;;;;;48.53;20.05;;;9.10;92.20;;;;;;5053290;28;20024;-39
2021/12/24 11:38:23;;;;;;;43.33;18.42;;;9.20;91.90;;;;;;5052904;28;20074;-41
2021/12/24 11:40:51;;;;;;;52.17;23.33;;;9.20;91.70;;;;;;5052891;28;20021;-41
2021/12/24 11:43:21;;;;;;;45.00;22.92;;;9.20;91.60;;;;;;5053857;28;20060;-40
2021/12/24 11:45:47;;;;;;;45.85;20.88;;;9.20;91.80;;;;;;5054507;28;20033;-39
2021/12/24 11:48:14;;;;;;;47.47;21.98;;;9.10;92.40;;;;;;5052654;28;20036;-39
2021/12/24 11:50:40;;;;;;;38.55;19.52;;;9.10;92.50;;;;;;5053147;28;20025;-40
2021/12/24 11:53:10;;;;;;;46.90;20.73;;;9.00;92.80;;;;;;5051661;28;20025;-39
2021/12/24 11:55:42;;;;;;;47.38;20.65;;;9.00;92.80;;;;;;5051969;28;20025;-38
2021/12/24 11:58:15;;;;;;;43.60;20.27;;;9.00;93.00;;;;;;5052377;28;20521;-39
2021/12/24 12:00:43;;;;;;;48.67;22.45;;;8.90;93.60;;;;;;5052769;28;20033;-39
2021/12/24 12:03:10;;;;;;;52.83;23.55;;;8.80;94.00;;;;;;5051639;28;20029;-39
2021/12/24 12:05:41;;;;;;;47.65;20.85;;;8.80;94.10;;;;;;5052421;28;20385;-39
2021/12/24 12:08:25;;;;;;;37.30;18.83;;;8.80;94.30;;;;;;5052553;28;20103;-40
2021/12/24 12:11:04;;;;;;;47.63;21.67;;;8.80;94.40;;;;;;5051430;28;20103;-40
2021/12/24 12:13:41;;;;;;;59.25;24.02;;;8.80;94.30;;;;;;5052990;28;20423;-40
2021/12/24 12:16:10;;;;;;;59.25;21.00;;;8.80;94.40;;;;;;5053049;28;20029;-39
2021/12/24 12:18:46;;;;;;;45.80;22.63;;;8.80;94.30;;;;;;5053176;28;20109;-38
2021/12/24 12:21:18;;;;;;;51.13;22.92;;;8.90;93.90;;;;;;5051804;28;20017;-39
2021/12/24 12:24:57;;;;;;;37.95;17.92;;;9.00;93.70;;;;;;5053725;28;20089;-40
2021/12/24 12:26:50;;;;;;;38.75;18.80;;;9.00;93.10;;;;;;5057609;28;20486;-39
2021/12/24 12:29:43;;;;;;;52.58;21.17;;;8.90;93.50;;;;;;5057373;28;20472;-39
2021/12/24 12:32:17;;;;;;;45.92;21.73;;;8.90;93.40;;;;;;5039591;28;20419;-38
2021/12/24 12:34:43;;;;;;;52.58;21.50;;;9.00;93.10;;;;;;5055660;28;20154;-39
2021/12/24 12:37:12;;;;;;;55.15;21.77;;;9.10;93.00;;;;;;5056938;28;20481;-40
2021/12/24 12:39:39;;;;;;;58.70;21.75;;;9.10;93.10;;;;;;5055801;28;20033;-41
2021/12/24 12:42:07;;;;;;;50.70;21.33;;;9.20;92.90;;;;;;5056293;28;20523;-39
2021/12/24 12:44:37;;;;;;;48.42;20.95;;;9.20;92.60;;;;;;5056292;28;20104;-39
2021/12/24 12:47:16;;;;;;;54.03;24.23;;;9.20;92.80;;;;;;5055225;28;20048;-39
2021/12/24 12:49:43;;;;;;;62.95;23.95;;;9.20;92.80;;;;;;5055187;28;20028;-39
2021/12/24 12:52:20;;;;;;;58.78;23.02;;;9.30;92.50;;;;;;5055666;28;20431;-39
2021/12/24 12:54:52;;;;;;;50.70;24.05;;;9.20;92.60;;;;;;5056354;28;20137;-38
2021/12/24 12:57:31;;;;;;;52.40;24.70;;;9.20;92.50;;;;;;5056080;28;20128;-39
2021/12/24 13:00:17;;;;;;;49.53;19.33;;;9.20;92.60;;;;;;5056421;28;20523;-38
2021/12/24 13:03:01;;;;;;;48.60;24.30;;;9.10;92.90;;;;;;5054568;28;20045;-41
2021/12/24 13:05:29;;;;;;;44.17;22.45;;;9.10;92.90;;;;;;5055779;28;20064;-40
2021/12/24 13:08:00;;;;;;;63.58;25.52;;;9.10;92.90;;;;;;5056061;28;20021;-39
2021/12/24 13:10:26;;;;;;;;;;;9.20;92.80;;;;;;5056872;28;20461;-39
2021/12/24 13:13:03;;;;;;;59.95;24.77;;;9.20;92.70;;;;;;5054718;28;20095;-40
2021/12/24 13:15:29;;;;;;;47.67;23.67;;;9.10;92.90;;;;;;5054818;28;20384;-39
2021/12/24 13:17:59;;;;;;;42.75;17.67;;;9.10;92.90;;;;;;5056570;28;20032;-40
2021/12/24 13:23:22;;;;;;;53.95;27.33;;;9.10;92.80;;;;;;5056640;28;20032;-39
2021/12/24 13:25:48;;;;;;;55.83;26.45;;;9.10;92.90;;;;;;5054911;28;20055;-40
2021/12/24 13:28:13;;;;;;;59.58;27.05;;;9.10;92.90;;;;;;5056413;28;20029;-40
2021/12/24 13:30:39;;;;;;;54.35;27.23;;;9.20;92.90;;;;;;5056337;28;20025;-39
2021/12/24 13:33:07;;;;;;;48.45;26.27;;;9.10;93.10;;;;;;5055968;28;20057;-42
2021/12/24 13:35:41;;;;;;;51.70;23.35;;;9.10;93.10;;;;;;5053915;28;20437;-39
2021/12/24 13:38:28;;;;;;;54.80;28.55;;;9.10;93.10;;;;;;5055617;28;20047;-39
2021/12/24 13:40:56;;;;;;;65.13;31.02;;;9.10;93.30;;;;;;5055884;28;20539;-41
2021/12/24 13:43:21;;;;;;;65.53;30.50;;;9.10;93.40;;;;;;5055071;28;20115;-41
2021/12/24 13:45:50;;;;;;;73.45;32.95;;;9.10;93.40;;;;;;5055341;28;20480;-39
2021/12/24 13:48:25;;;;;;;58.58;29.50;;;9.00;93.60;;;;;;5054295;28;20112;-41
2021/12/24 13:56:24;;;;;;;56.15;30.38;;;9.10;93.40;;;;;;5056327;28;20032;-40
2021/12/24 13:58:57;;;;;;;54.30;27.42;;;9.10;93.20;;;;;;5055622;28;20033;-40
2021/12/24 14:01:29;;;;;;;52.20;25.35;;;9.10;92.90;;;;;;5055064;28;20037;-39
2021/12/24 14:03:56;;;;;;;60.65;27.92;;;9.10;92.80;;;;;;5054091;28;20389;-40
2021/12/24 14:06:37;;;;;;;61.58;30.15;;;9.20;92.60;;;;;;5055420;28;20067;-40
2021/12/24 14:09:08;;;;;;;;;;;9.10;92.50;;;;;;5055634;28;20025;-39
2021/12/24 14:11:36;;;;;;;50.95;26.60;;;9.20;92.40;;;;;;5055767;28;19931;-41
2021/12/24 14:14:07;;;;;;;55.70;24.98;;;9.20;92.50;;;;;;5055158;28;20132;-39
2021/12/24 14:19:27;;;;;;;55.60;25.77;;;9.10;92.50;;;;;;5055555;28;19909;-40
2021/12/24 14:22:04;;;;;;;50.63;25.08;;;9.20;92.30;;;;;;5055005;28;20432;-42
2021/12/24 14:24:34;;;;;;;48.60;25.05;;;9.20;92.50;;;;;;5054856;28;20477;-40
2021/12/24 14:27:02;;;;;;;48.63;23.48;;;9.20;92.20;;;;;;5055382;28;20086;-40
2021/12/24 14:29:35;;;;;;;53.42;22.10;;;9.20;91.90;;;;;;5055026;28;20025;-40
2021/12/24 14:32:12;;;;;;;52.53;24.52;;;9.20;91.70;;;;;;5054324;28;20393;-40
2021/12/24 14:34:38;;;;;;;48.78;22.92;;;9.20;91.70;;;;;;5055843;28;20063;-40
2021/12/24 14:37:32;;;;;;;53.17;24.48;;;9.20;91.70;;;;;;5055761;28;20021;-39
2021/12/24 14:40:08;;;;;;;31.90;14.82;;;9.20;91.70;;;;;;5055061;28;20029;-41
2021/12/24 14:42:36;;;;;;;52.22;24.67;;;9.20;91.80;;;;;;5054750;28;20522;-40
2021/12/24 14:45:25;;;;;;;48.50;21.50;;;9.20;91.60;;;;;;5054688;28;20083;-41
2021/12/24 14:48:01;;;;;;;39.25;21.23;;;9.20;91.80;;;;;;5054859;28;20033;-39
2021/12/24 14:50:29;;;;;;;44.65;20.05;;;9.20;91.70;;;;;;5055699;28;20020;-40
2021/12/24 14:53:14;;;;;;;42.78;21.65;;;9.20;91.70;;;;;;5052989;28;20082;-40
2021/12/24 14:56:01;;;;;;;42.67;17.83;;;9.20;91.10;;;;;;5055472;28;20435;-39
2021/12/24 14:58:48;;;;;;;51.88;23.67;;;9.30;91.00;;;;;;5054453;28;20440;-40
2021/12/24 15:01:19;;;;;;;50.63;19.23;;;9.20;91.30;;;;;;5053661;28;20041;-39
2021/12/24 15:03:54;;;;;;;45.75;23.10;;;9.20;91.40;;;;;;5054340;28;20025;-39
2021/12/24 15:06:29;;;;;;;40.05;21.58;;;9.20;91.30;;;;;;5052552;28;20028;-39
2021/12/24 15:09:20;;;;;;;46.72;20.52;;;9.20;91.10;;;;;;5053660;28;20017;-39
2021/12/24 15:11:47;;;;;;;43.78;19.75;;;9.20;91.20;;;;;;5054400;28;20350;-39
2021/12/24 15:14:14;;;;;;;41.13;21.60;;;9.20;91.30;;;;;;5052967;28;20037;-40
2021/12/24 15:16:46;;;;;;;44.83;20.65;;;9.10;91.40;;;;;;5053491;28;20029;-40
2021/12/24 15:19:12;;;;;;;47.15;21.38;;;9.20;91.30;;;;;;5052226;28;20032;-39
2021/12/24 15:21:38;;;;;;;51.22;21.75;;;9.20;91.30;;;;;;5053764;28;20029;-39
2021/12/24 15:24:07;;;;;;;44.58;22.52;;;9.10;91.60;;;;;;5053604;28;20029;-39
2021/12/24 15:26:33;;;;;;;42.03;21.05;;;9.10;91.70;;;;;;5052565;28;20060;-41
2021/12/24 15:29:01;;;;;;;51.20;25.50;;;9.10;91.60;;;;;;5053593;28;20465;-39
2021/12/24 15:31:30;;;;;;;55.40;24.33;;;9.10;91.60;;;;;;5054281;28;20033;-40
2021/12/24 15:33:57;;;;;;;55.58;23.75;;;9.10;91.60;;;;;;5053603;28;20035;-39
2021/12/24 15:36:22;;;;;;;48.05;24.50;;;9.10;91.90;;;;;;5053940;28;20053;-40
2021/12/24 15:38:49;;;;;;;41.05;23.63;;;9.00;92.00;;;;;;5053875;28;20385;-40
2021/12/24 15:41:15;;;;;;;50.15;22.60;;;9.00;92.00;;;;;;5053719;28;20082;-39
2021/12/24 15:43:42;;;;;;;55.45;25.85;;;9.00;92.20;;;;;;5054017;28;20525;-40
2021/12/24 15:46:08;;;;;;;48.60;22.27;;;9.00;92.30;;;;;;5054295;28;20020;-40
2021/12/24 15:48:34;;;;;;;45.95;24.42;;;9.00;92.40;;;;;;5053731;28;20031;-39
2021/12/24 15:51:04;;;;;;;51.05;24.35;;;8.90;92.50;;;;;;5053340;28;20120;-40
2021/12/24 15:53:30;;;;;;;62.00;28.27;;;8.90;92.60;;;;;;5052451;28;20032;-41
2021/12/24 15:55:56;;;;;;;50.33;26.23;;;8.90;92.80;;;;;;5057608;28;20381;-39
2021/12/24 15:58:22;;;;;;;60.88;31.13;;;8.90;93.00;;;;;;5053542;28;20021;-40
2021/12/24 16:00:51;;;;;;;62.83;28.38;;;8.80;93.30;;;;;;5053139;28;20527;-46
2021/12/24 16:03:18;;;;;;;51.10;27.15;;;8.80;93.40;;;;;;5052217;28;20115;-40
2021/12/24 16:05:43;;;;;;;55.67;26.52;;;8.80;93.50;;;;;;5053219;28;20445;-39
2021/12/24 16:08:10;;;;;;;55.10;28.27;;;8.80;93.40;;;;;;5053760;28;20021;-40
2021/12/24 16:10:36;;;;;;;50.58;27.27;;;8.80;93.60;;;;;;5053261;28;20032;-39
2021/12/24 16:13:02;;;;;;;50.08;22.25;;;8.80;93.20;;;;;;5051476;28;20082;-38
2021/12/24 16:15:29;;;;;;;52.13;24.75;;;8.80;93.30;;;;;;5053029;28;20035;-39
2021/12/24 16:17:55;;;;;;;54.10;25.58;;;8.80;93.20;;;;;;5052145;28;20053;-39
2021/12/24 16:20:22;;;;;;;50.70;23.35;;;8.80;93.20;;;;;;5053236;28;20029;-39
2021/12/24 16:22:47;;;;;;;58.72;29.42;;;8.80;93.00;;;;;;5053434;28;20477;-39
2021/12/24 16:25:14;;;;;;;47.03;25.20;;;8.80;92.80;;;;;;5053389;28;20028;-40
2021/12/24 16:27:41;;;;;;;52.90;27.77;;;8.90;92.70;;;;;;5053341;28;20067;-38
2021/12/24 16:30:11;;;;;;;48.38;27.33;;;8.80;92.90;;;;;;5053133;28;20049;-40
2021/12/24 16:32:37;;;;;;;57.03;27.33;;;8.80;93.10;;;;;;5053873;28;20568;-40
2021/12/24 16:35:09;;;;;;;65.13;29.48;;;8.80;93.40;;;;;;5053483;28;20111;-39
2021/12/24 16:37:39;;;;;;;55.80;27.08;;;8.70;93.80;;;;;;5052133;28;20025;-41
2021/12/24 16:40:08;;;;;;;60.97;29.58;;;8.60;94.10;;;;;;5054603;28;20087;-38
2021/12/24 16:42:34;;;;;;;65.80;30.08;;;8.60;94.20;;;;;;5053740;28;20021;-39
2021/12/24 16:45:00;;;;;;;42.42;21.60;;;8.50;94.40;;;;;;5053167;28;20368;-40
2021/12/24 16:47:26;;;;;;;58.60;32.45;;;8.50;94.30;;;;;;5053222;28;20151;-40
2021/12/24 16:49:52;;;;;;;74.43;35.20;;;8.50;94.30;;;;;;5053320;28;20028;-40
2021/12/24 16:52:18;;;;;;;88.10;44.53;;;8.50;94.20;;;;;;5053289;28;20163;-39
2021/12/24 16:54:44;;;;;;;83.18;39.78;;;8.50;94.30;;;;;;5053397;28;20024;-38
2021/12/24 16:57:10;;;;;;;73.10;40.65;;;8.50;94.40;;;;;;5054021;28;20067;-38
2021/12/24 16:59:40;;;;;;;88.03;44.03;;;8.50;94.50;;;;;;5053194;28;20029;-40
2021/12/24 17:02:13;;;;;;;76.13;36.20;;;8.50;94.50;;;;;;5052628;28;20489;-39
2021/12/24 17:04:39;;;;;;;71.43;33.72;;;8.40;94.40;;;;;;5053523;28;20532;-39
2021/12/24 17:07:06;;;;;;;76.50;35.47;;;8.40;94.60;;;;;;5053113;28;20053;-39
2021/12/24 17:09:33;;;;;;;72.97;33.33;;;8.40;94.80;;;;;;5054974;28;20032;-39
2021/12/24 17:12:03;;;;;;;62.83;31.67;;;8.40;94.80;;;;;;5056735;28;20036;-38
2021/12/24 17:14:33;;;;;;;60.13;30.92;;;8.30;94.80;;;;;;5056367;28;20029;-39
2021/12/24 17:17:00;;;;;;;62.92;29.08;;;8.30;95.00;;;;;;5039726;28;20033;-40
2021/12/24 17:19:26;;;;;;;68.70;31.27;;;8.30;95.10;;;;;;5054729;28;20029;-38
2021/12/24 17:21:52;;;;;;;57.53;27.58;;;8.40;95.10;;;;;;5055815;28;20025;-39
2021/12/24 17:24:18;;;;;;;65.50;29.40;;;8.30;95.10;;;;;;5055935;28;20021;-38
2021/12/24 17:26:44;;;;;;;68.65;30.35;;;8.30;95.30;;;;;;5056167;28;20079;-40
2021/12/24 17:29:10;;;;;;;76.40;32.75;;;8.30;95.30;;;;;;5056275;28;20052;-40
2021/12/24 17:31:36;;;;;;;53.65;29.77;;;8.30;95.20;;;;;;5056168;28;20040;-39
2021/12/24 17:34:02;;;;;;;73.93;31.95;;;8.30;95.30;;;;;;5055861;28;20033;-39
2021/12/24 17:36:28;;;;;;;83.60;33.70;;;8.30;95.40;;;;;;5054254;28;20493;-39
2021/12/24 17:38:55;;;;;;;71.20;31.52;;;8.30;95.40;;;;;;5055597;28;20104;-40
2021/12/24 17:41:22;;;;;;;64.93;32.20;;;8.30;95.40;;;;;;5055936;28;20021;-40
2021/12/24 17:43:47;;;;;;;67.80;32.28;;;8.30;95.50;;;;;;5056008;28;20326;-39
2021/12/24 17:46:13;;;;;;;67.10;30.65;;;8.30;95.40;;;;;;5055496;28;20096;-39
2021/12/24 17:48:40;;;;;;;92.40;36.33;;;8.40;95.40;;;;;;5055985;28;20108;-39